Terminal Aerodrome Forecast
Issued by NWS Twin Cities, MN

Home | Current Version | Previous Version | Graphics & Text | Print | Product List | Glossary On
Versions: 1 2 3 4 5 6 7 8 9 10 11 12 13 14 15 16 17 18 19 20 21 22 23 24 25 26 27 28
364
FTUS43 KMPX 182102 AAA
TAFMSP
TAF AMD
KMSP 182102Z 1821/1924 13009KT P6SM SCT009 BKN025
     FM190000 13008KT P6SM OVC017
     FM191700 13012KT P6SM BKN035=

USA.gov is the U.S. government's official web portal to all federal, state and local government web resources and services.